createdAt,value
2022-08-05T04:10:01.774Z,8.5
2022-08-05T04:12:23.838Z,10.5
2022-08-05T04:14:34.234Z,11.6
2022-08-05T04:16:48.809Z,9
2022-08-05T04:19:04.701Z,9.2
2022-08-05T04:22:05.541Z,7.2
2022-08-05T04:23:57.423Z,9.3
2022-08-05T04:26:00.812Z,6.6
2022-08-05T04:28:14.161Z,9.5
2022-08-05T04:30:28.599Z,8.1
2022-08-05T04:32:43.980Z,7.4
2022-08-05T04:34:59.361Z,7.7
2022-08-05T04:37:14.797Z,10.5
2022-08-05T04:39:30.177Z,10.7
2022-08-05T04:41:48.139Z,9.8
2022-08-05T04:44:09.150Z,9.1
2022-08-05T04:46:28.096Z,9.5
2022-08-05T04:48:35.541Z,10.2
2022-08-05T04:51:01.506Z,12
2022-08-05T04:53:09.182Z,10.1
2022-08-05T04:55:34.026Z,11.3
2022-08-05T04:57:47.628Z,14.1
2022-08-05T04:59:59.235Z,11.9
2022-08-05T05:02:35.951Z,14.9
2022-08-05T05:04:30.962Z,14.6
2022-08-05T05:06:49.417Z,17.5
2022-08-05T05:09:05.470Z,16.700001
2022-08-05T05:11:20.073Z,17.200001
2022-08-05T05:13:43.096Z,16.299999
2022-08-05T05:15:56.326Z,18.1
2022-08-05T05:18:09.177Z,16.5
2022-08-05T05:20:28.178Z,16.1
2022-08-05T05:22:43.931Z,13.4
2022-08-05T05:25:01.254Z,17
2022-08-05T05:27:17.621Z,17.700001
2022-08-05T05:29:41.057Z,16.799999
2022-08-05T05:31:51.285Z,18.6
2022-08-05T05:34:05.636Z,20.1
2022-08-05T05:36:20.970Z,17.799999
2022-08-05T05:38:36.359Z,18.200001
2022-08-05T05:40:52.701Z,18.700001
2022-08-05T05:43:09.033Z,20.5
2022-08-05T05:45:24.640Z,20.5
2022-08-05T05:48:04.878Z,19.299999
2022-08-05T05:50:01.707Z,19.799999
2022-08-05T05:52:15.372Z,20.4
2022-08-05T05:54:35.077Z,21.299999
2022-08-05T05:56:49.225Z,24.299999
2022-08-05T05:59:07.106Z,21.4
2022-08-05T06:01:23.671Z,22.799999
2022-08-05T06:03:54.245Z,22.9
2022-08-05T06:05:57.384Z,21.6
2022-08-05T06:08:11.748Z,24.799999
2022-08-05T06:10:29.322Z,23.6
2022-08-05T06:12:45.368Z,23.6
2022-08-05T06:15:00.723Z,23.6
2022-08-05T06:17:21.870Z,22.200001
2022-08-05T06:19:35.646Z,23.6
2022-08-05T06:21:51.662Z,24.6
2022-08-05T06:24:07.650Z,22.700001
2022-08-05T06:26:24.270Z,24.799999
2022-08-05T06:28:38.594Z,25.200001
2022-08-05T06:30:53.959Z,24.6
2022-08-05T06:33:11.308Z,26.1
2022-08-05T06:36:03.213Z,27
2022-08-05T06:37:57.155Z,25.4
2022-08-05T06:40:02.447Z,26.200001
2022-08-05T06:42:16.699Z,24.5
2022-08-05T06:44:32.037Z,23.1
2022-08-05T06:46:47.376Z,24.1
2022-08-05T06:49:05.830Z,22.299999
2022-08-05T06:51:22.769Z,19.4
2022-08-05T06:53:39.207Z,17.799999
2022-08-05T06:55:54.761Z,18.4
2022-08-05T06:58:20.454Z,18.200001
2022-08-05T07:00:29.581Z,17
2022-08-05T07:02:44.802Z,16.200001
2022-08-05T07:05:00.133Z,11.8
2022-08-05T07:07:15.541Z,9.7
2022-08-05T07:09:32.759Z,7.1
2022-08-05T07:11:51.488Z,8
2022-08-05T07:14:05.574Z,7.6
2022-08-05T07:17:56.120Z,7.9
2022-08-05T07:18:39.336Z,6.6
2022-08-05T07:20:54.725Z,6.8
2022-08-05T07:23:13.092Z,6.9
2022-08-05T07:25:55.752Z,5.8
2022-08-05T07:27:56.770Z,7
2022-08-05T07:30:22.641Z,7
2022-08-05T07:32:17.423Z,7.4
2022-08-05T07:34:33.779Z,5.6
2022-08-05T07:36:51.291Z,6.1
2022-08-05T07:39:06.503Z,7.2
2022-08-05T07:42:09.695Z,7.9
2022-08-05T07:43:39.322Z,7
2022-08-05T07:45:56.955Z,7.2
2022-08-05T07:48:11.137Z,6.6
2022-08-05T07:50:29.030Z,6.3
2022-08-05T07:52:44.945Z,6.3
2022-08-05T07:55:00.403Z,5.4
2022-08-05T07:57:42.243Z,5.3
2022-08-05T07:59:39.151Z,4.4
2022-08-05T08:01:51.648Z,4.1
2022-08-05T08:04:06.905Z,3.9
2022-08-05T08:06:28.084Z,4
2022-08-05T08:08:40.729Z,3.6
2022-08-05T08:10:55.923Z,3.9
2022-08-05T08:13:12.318Z,4.1
2022-08-05T08:15:37.543Z,3.9
2022-08-05T08:17:46.394Z,4.1
2022-08-05T08:20:10.666Z,3.9
2022-08-05T08:22:18.655Z,3.9
2022-08-05T08:24:51.174Z,4
2022-08-05T08:26:50.411Z,4.2
2022-08-05T08:29:21.512Z,3.5
2022-08-05T08:31:25.188Z,3.4
2022-08-05T08:33:40.711Z,3.7
2022-08-05T08:36:12.938Z,3.8
2022-08-05T08:38:16.340Z,4.2
2022-08-05T08:40:29.776Z,4.2
2022-08-05T08:42:50.808Z,4.2
2022-08-05T08:45:21.646Z,4.1
2022-08-05T08:47:47.852Z,4.6
2022-08-05T08:50:05.449Z,4.5
2022-08-05T08:52:02.441Z,4
2022-08-05T08:54:13.980Z,4
2022-08-05T08:56:29.344Z,3.6
2022-08-05T08:58:47.767Z,3.2
2022-08-05T09:01:01.364Z,3.5
2022-08-05T09:03:19.133Z,3
2022-08-05T09:05:38.044Z,3.2
2022-08-05T09:07:56.057Z,3.1
2022-08-05T09:10:08.759Z,2.8
2022-08-05T09:12:27.169Z,3.1
2022-08-05T09:14:55.170Z,3.1
2022-08-05T09:16:59.012Z,3.4
2022-08-05T09:19:15.408Z,3.4
2022-08-05T09:22:13.717Z,3.4
2022-08-05T09:23:48.192Z,3.4
2022-08-05T09:26:06.757Z,3.9
2022-08-05T09:28:22.830Z,3.8
2022-08-05T09:30:39.243Z,3.7
2022-08-05T09:32:54.792Z,4
2022-08-05T09:35:09.965Z,3.8
2022-08-05T09:38:13.127Z,3.4
2022-08-05T09:39:45.947Z,3.9
2022-08-05T09:42:00.119Z,4
2022-08-05T09:44:14.424Z,4.4
2022-08-05T09:46:29.893Z,4.3
2022-08-05T09:48:55.227Z,4.9
2022-08-05T09:51:01.617Z,4.4
2022-08-05T09:53:22.747Z,4.8
2022-08-05T09:55:55.673Z,4.9
2022-08-05T09:57:54.472Z,4.7
2022-08-05T10:00:09.019Z,4.2
2022-08-05T10:02:26.685Z,4.1
2022-08-05T10:04:40.757Z,3.9
2022-08-05T10:06:59.169Z,4.2
2022-08-05T10:09:25.274Z,4.6
2022-08-05T10:11:35.083Z,3.5
2022-08-05T10:13:49.810Z,3.7
2022-08-05T10:16:05.230Z,3.3
2022-08-05T10:18:22.585Z,3.6
2022-08-05T10:20:36.999Z,4
2022-08-05T10:22:52.377Z,4.1
2022-08-05T10:25:08.665Z,4.3
2022-08-05T10:27:26.177Z,4.3
2022-08-05T10:30:07.321Z,5.1
2022-08-05T10:32:50.146Z,5.3
2022-08-05T10:34:16.863Z,5.2
2022-08-05T10:36:30.512Z,5.8
2022-08-05T10:38:45.895Z,4.9
2022-08-05T10:41:00.354Z,4.7
2022-08-05T10:43:14.717Z,4.7
2022-08-05T10:45:40.571Z,4.7
2022-08-05T10:47:56.234Z,4.8
2022-08-05T10:50:21.093Z,5.2
2022-08-05T10:52:23.493Z,5.8
2022-08-05T10:54:47.041Z,5.1
2022-08-05T10:56:55.888Z,5.7
2022-08-05T11:00:01.744Z,5.2
2022-08-05T11:01:54.310Z,5.1
2022-08-05T11:03:45.005Z,4.7
2022-08-05T11:06:03.766Z,5.4
2022-08-05T11:08:27.580Z,6.5
2022-08-05T11:10:34.024Z,6.4
2022-08-05T11:12:54.513Z,5.6
2022-08-05T11:15:12.098Z,5.5
2022-08-05T11:17:58.281Z,6.5
2022-08-05T11:20:11.697Z,6.1
2022-08-05T11:21:59.793Z,6.3
2022-08-05T11:24:30.514Z,4.7
2022-08-05T11:26:33.691Z,4.7
2022-08-05T11:28:47.838Z,5.8
2022-08-05T11:31:05.876Z,5.5
2022-08-05T11:33:21.327Z,5.9
2022-08-05T11:35:34.911Z,6
2022-08-05T11:38:27.430Z,6.1
2022-08-05T11:40:07.771Z,5.8
2022-08-05T11:42:22.132Z,5.9
2022-08-05T11:44:41.020Z,5.5
2022-08-05T11:46:58.875Z,5.4
2022-08-05T11:49:12.263Z,5.4
2022-08-05T11:51:43.947Z,5.5
2022-08-05T11:53:44.989Z,5.5
2022-08-05T11:56:00.135Z,4.8
2022-08-05T11:58:17.391Z,5.6
2022-08-05T12:00:32.090Z,4.9
2022-08-05T12:02:47.448Z,4.4
2022-08-05T12:05:06.686Z,5.1
2022-08-05T12:07:17.148Z,5.3
2022-08-05T12:09:38.726Z,4.8
2022-08-05T12:11:50.851Z,5
2022-08-05T12:14:06.188Z,4.6
2022-08-05T12:16:25.611Z,4.7
2022-08-05T12:18:39.435Z,4.3
2022-08-05T12:20:54.825Z,4.1
2022-08-05T12:23:10.186Z,4.5
2022-08-05T12:25:28.503Z,4.6
2022-08-05T12:27:52.806Z,5.3
2022-08-05T12:29:59.277Z,5
2022-08-05T12:32:14.593Z,5
2022-08-05T12:34:28.961Z,4.8
2022-08-05T12:36:44.374Z,5.2
2022-08-05T12:38:58.660Z,5.1
2022-08-05T12:41:16.236Z,4.4
2022-08-05T12:43:32.439Z,4.8
2022-08-05T12:45:49.913Z,4.8
2022-08-05T12:48:17.807Z,4.7
2022-08-05T12:50:22.525Z,5.4
2022-08-05T12:52:42.129Z,4.6
2022-08-05T12:54:55.353Z,4.5
2022-08-05T12:57:12.928Z,4.5
2022-08-05T12:59:47.021Z,4
2022-08-05T13:01:59.548Z,4.3
2022-08-05T13:04:01.680Z,3.8
2022-08-05T13:06:19.043Z,4
2022-08-05T13:08:34.426Z,3.4
2022-08-05T13:10:50.937Z,3.4
2022-08-05T13:13:05.126Z,3.3
2022-08-05T13:15:24.262Z,3.4
2022-08-05T13:17:41.654Z,3.3
2022-08-05T13:19:55.175Z,3
2022-08-05T13:22:12.120Z,3.5
2022-08-05T13:24:36.665Z,2.6
2022-08-05T13:26:44.267Z,3.7
2022-08-05T13:29:01.593Z,3.1
2022-08-05T13:31:15.997Z,3.1
2022-08-05T13:34:23.700Z,3.4
2022-08-05T13:35:51.668Z,2.9
2022-08-05T13:38:06.964Z,2.8
2022-08-05T13:40:35.807Z,3.1
2022-08-05T13:42:38.666Z,3.9
2022-08-05T13:44:55.899Z,3.5
2022-08-05T13:47:12.329Z,3.2
2022-08-05T13:49:28.681Z,2.5
2022-08-05T13:51:47.071Z,2.1
2022-08-05T13:54:03.364Z,2.1
2022-08-05T13:56:19.651Z,1.9
2022-08-05T13:58:34.108Z,2
2022-08-05T14:00:50.505Z,2.7
2022-08-05T14:03:06.905Z,2.8
2022-08-05T14:05:29.575Z,2.6
2022-08-05T14:07:56.804Z,2.8
2022-08-05T14:09:56.860Z,2.9
2022-08-05T14:12:17.962Z,2.6
2022-08-05T14:14:33.556Z,2.5
2022-08-05T14:16:50.083Z,3.3
2022-08-05T14:19:05.414Z,2.7
2022-08-05T14:21:23.994Z,3.2
2022-08-05T14:23:38.130Z,3
2022-08-05T14:25:54.610Z,2.8
2022-08-05T14:28:10.900Z,2.6
2022-08-05T14:30:28.435Z,2.3
2022-08-05T14:32:44.680Z,2.4
2022-08-05T14:34:59.021Z,2.3
2022-08-05T14:37:14.379Z,2.1
2022-08-05T14:39:29.874Z,2.1
2022-08-05T14:42:02.577Z,1.9
2022-08-05T14:44:09.920Z,2.4
2022-08-05T14:46:20.960Z,2.1
2022-08-05T14:48:35.340Z,2.1
2022-08-05T14:50:51.735Z,2.1
2022-08-05T14:53:08.106Z,1.8
2022-08-05T14:55:23.412Z,1.8
2022-08-05T14:57:54.106Z,1.6
2022-08-05T14:59:56.223Z,1.8
2022-08-05T15:02:14.734Z,1.6
2022-08-05T15:04:29.837Z,1.8
2022-08-05T15:06:48.933Z,1.4
2022-08-05T15:09:03.974Z,1.3
2022-08-05T15:11:18.086Z,1.2
2022-08-05T15:13:44.975Z,1.2
2022-08-05T15:15:54.820Z,1.7
2022-08-05T15:18:08.191Z,1.9
2022-08-05T15:20:24.609Z,2
2022-08-05T15:22:39.956Z,1.6
2022-08-05T15:24:54.287Z,1.8
2022-08-05T15:27:09.696Z,1.8
2022-08-05T15:29:24.045Z,1.9
2022-08-05T15:31:39.454Z,2.3
2022-08-05T15:34:06.043Z,1.9
2022-08-05T15:36:17.079Z,1.4
2022-08-05T15:38:35.207Z,1.5
2022-08-05T15:41:04.962Z,1.4
2022-08-05T15:43:09.510Z,1.2
2022-08-05T15:45:27.125Z,1.2
2022-08-05T15:47:37.821Z,1.2
2022-08-05T15:49:56.921Z,1.1
2022-08-05T15:52:17.068Z,1.4
2022-08-05T15:54:34.622Z,1.2
2022-08-05T15:56:45.244Z,1.1
2022-08-05T15:58:59.589Z,1.1
2022-08-05T16:01:17.840Z,1
2022-08-05T16:03:33.959Z,1.1
2022-08-05T16:05:52.700Z,1.1
2022-08-05T16:08:05.162Z,1.5
2022-08-05T16:10:23.263Z,1.3
2022-08-05T16:12:38.061Z,1.1
2022-08-05T16:14:52.440Z,1.2
2022-08-05T16:17:09.427Z,1.3
2022-08-05T16:19:25.785Z,1.2
2022-08-05T16:21:59.115Z,1.2
2022-08-05T16:24:03.274Z,1
2022-08-05T16:26:15.196Z,2.4
2022-08-05T16:28:30.521Z,1.2
2022-08-05T16:30:45.886Z,1.2
2022-08-05T16:33:01.220Z,1.2
2022-08-05T16:35:17.935Z,0.8
2022-08-05T16:38:03.901Z,1.1
2022-08-05T16:40:04.151Z,1.1
2022-08-05T16:42:13.404Z,1.1
2022-08-05T16:44:25.954Z,1.2
2022-08-05T16:46:42.357Z,1.2
2022-08-05T16:48:57.747Z,1
2022-08-05T16:51:13.124Z,1
2022-08-05T16:53:31.950Z,1
2022-08-05T16:55:47.492Z,1
2022-08-05T16:58:03.492Z,0.8
2022-08-05T17:00:26.346Z,0.8
2022-08-05T17:02:35.970Z,0.8
2022-08-05T17:04:51.407Z,0.8
2022-08-05T17:07:11.100Z,1.1
2022-08-05T17:09:24.371Z,0.8
2022-08-05T17:11:46.038Z,0.7
2022-08-05T17:14:00.780Z,0.8
2022-08-05T17:16:33.774Z,0.7
2022-08-05T17:18:32.819Z,0.6
2022-08-05T17:20:48.603Z,0.6
2022-08-05T17:23:04.693Z,1.1
2022-08-05T17:25:22.325Z,0.8
2022-08-05T17:27:37.526Z,0.7
2022-08-05T17:29:59.687Z,0.6
2022-08-05T17:32:16.960Z,0.9
2022-08-05T17:34:29.656Z,0.6
2022-08-05T17:36:45.641Z,0.6
2022-08-05T17:39:01.711Z,0.6
2022-08-05T17:41:22.669Z,0.7
2022-08-05T17:43:47.369Z,0.8
2022-08-05T17:45:53.239Z,1.1
2022-08-05T17:48:08.981Z,0.8
2022-08-05T17:50:27.969Z,0.8
2022-08-05T17:52:49.783Z,23.6
2022-08-05T17:54:58.316Z,23.799999
2022-08-05T17:57:13.736Z,18.9
2022-08-05T17:59:29.234Z,15.1
2022-08-05T18:01:49.521Z,2
2022-08-05T18:04:04.327Z,1.6
2022-08-05T18:06:18.395Z,1.3
2022-08-05T18:08:34.821Z,2.8
2022-08-05T18:10:49.174Z,1.8
2022-08-05T18:13:07.739Z,1.9
2022-08-05T18:15:20.153Z,1.7
2022-08-05T18:17:58.193Z,1
2022-08-05T18:19:54.066Z,0.9
2022-08-05T18:22:11.240Z,1
2022-08-05T18:24:28.192Z,0.9
2022-08-05T18:26:45.022Z,1.1
2022-08-05T18:29:00.373Z,1.1
2022-08-05T18:31:16.751Z,0.8
2022-08-05T18:33:37.522Z,1.1
2022-08-05T18:36:01.491Z,1
2022-08-05T18:38:06.899Z,0.9
2022-08-05T18:40:34.793Z,0.9
2022-08-05T18:42:40.858Z,0.9
2022-08-05T18:44:57.243Z,1.1
2022-08-05T18:47:12.699Z,0.6
2022-08-05T18:49:30.256Z,0.8
2022-08-05T18:52:03.651Z,1.3
2022-08-05T18:54:01.857Z,1.6
2022-08-05T18:56:16.229Z,1
2022-08-05T18:58:33.842Z,1.3
2022-08-05T19:00:50.287Z,1.3
2022-08-05T19:03:06.710Z,1.2
2022-08-05T19:06:05.369Z,0.9
2022-08-05T19:07:45.430Z,0.9
2022-08-05T19:09:55.893Z,0.9
2022-08-05T19:12:12.237Z,0.6
2022-08-05T19:14:45.031Z,0.9
2022-08-05T19:16:46.661Z,1.1
2022-08-05T19:19:01.328Z,1.3
2022-08-05T19:21:15.770Z,0.7
2022-08-05T19:24:04.905Z,0.9
2022-08-05T19:25:47.651Z,0.7
2022-08-05T19:28:02.094Z,0.9
2022-08-05T19:30:20.543Z,0.6
2022-08-05T19:32:35.016Z,0.9
2022-08-05T19:34:54.449Z,0.9
2022-08-05T19:37:06.692Z,1
2022-08-05T19:39:22.037Z,0.8
2022-08-05T19:42:05.489Z,0.8
2022-08-05T19:44:05.039Z,0.6
2022-08-05T19:46:16.550Z,1
2022-08-05T19:48:28.862Z,0.8
2022-08-05T19:50:43.340Z,0.8
2022-08-05T19:52:58.754Z,0.9
2022-08-05T19:56:11.825Z,1
2022-08-05T19:57:46.681Z,0.8
2022-08-05T19:59:51.360Z,0.8
2022-08-05T20:02:06.261Z,1
2022-08-05T20:04:20.690Z,0.8
2022-08-05T20:06:37.892Z,0.7
2022-08-05T20:08:53.368Z,0.9
2022-08-05T20:11:07.761Z,0.9
2022-08-05T20:13:30.414Z,0.7
2022-08-05T20:15:49.022Z,0.9
2022-08-05T20:17:58.025Z,0.7
2022-08-05T20:20:13.378Z,0.8
2022-08-05T20:22:29.064Z,1.1
2022-08-05T20:24:44.138Z,0.8
2022-08-05T20:26:58.576Z,1.1
2022-08-05T20:29:26.978Z,1
2022-08-05T20:31:37.130Z,1
2022-08-05T20:33:48.779Z,0.8
2022-08-05T20:36:03.193Z,1.1
2022-08-05T20:38:22.576Z,0.7
2022-08-05T20:40:35.125Z,0.9
2022-08-05T20:42:49.571Z,1.1
2022-08-05T20:45:06.036Z,1
2022-08-05T20:47:31.908Z,0.8
2022-08-05T20:49:40.145Z,0.8
2022-08-05T20:51:55.166Z,1.3
2022-08-05T20:54:14.033Z,0.8
2022-08-05T20:56:31.987Z,1
2022-08-05T20:58:44.633Z,1
2022-08-05T21:00:59.015Z,0.7
2022-08-05T21:03:16.583Z,0.9
2022-08-05T21:05:38.270Z,1
2022-08-05T21:07:51.073Z,1.4
2022-08-05T21:10:05.738Z,1
2022-08-05T21:12:20.202Z,0.9
2022-08-05T21:14:36.496Z,0.9
2022-08-05T21:16:51.972Z,1
2022-08-05T21:19:06.415Z,1
2022-08-05T21:21:24.319Z,0.9
2022-08-05T21:23:39.257Z,0.9
2022-08-05T21:25:55.675Z,0.8
2022-08-05T21:28:10.039Z,1.2
